Amesbury, Massachusetts
Current Conditions -  °F | °C
As of 6:54 PM on Thursday 18 Dec 2014 (Local Time) from KLWM Reporting Station
Overcast Overcast  
Wind Chill: 31°   Ceiling: 3300
Heat Index: 38°   Visibility: 10mi
Dew Point: 27°   Wind: 9mph
Humidity: 65%   Direction: 280°W
Pressure: 29.85"   Gusts: NA
Location:  42.86°N, 70.93°W
Report Text: KLWM 182354Z 28008KT 10SM OVC033 03/M03 A2985 RMK AO2 SLP109 T00331028 10050 20033 52015
Loading
Personal Weather Stations






























Interactive Weather Map New forecast layout! Learn more

10-Day Weather Forecast

Advertisements
Track Severe Weather on mobile